sensor_id;sensor_type;location;lat;lon;timestamp;pressure;altitude;pressure_sealevel;temperature;humidity
29815;BME280;16708;50.426;7.664;2023-07-29T00:02:19;981.26;;;17.65;100.00
29815;BME280;16708;50.426;7.664;2023-07-29T00:07:14;981.24;;;17.59;100.00
29815;BME280;16708;50.426;7.664;2023-07-29T00:12:09;981.04;;;17.56;100.00
29815;BME280;16708;50.426;7.664;2023-07-29T00:17:04;980.95;;;17.57;100.00
29815;BME280;16708;50.426;7.664;2023-07-29T00:21:58;980.92;;;17.54;100.00
29815;BME280;16708;50.426;7.664;2023-07-29T00:26:53;980.87;;;17.66;100.00
29815;BME280;16708;50.426;7.664;2023-07-29T00:31:48;980.89;;;17.71;100.00
29815;BME280;16708;50.426;7.664;2023-07-29T00:36:42;980.91;;;17.74;100.00
29815;BME280;16708;50.426;7.664;2023-07-29T00:41:37;980.86;;;17.69;100.00
29815;BME280;16708;50.426;7.664;2023-07-29T00:46:31;980.84;;;17.65;100.00
29815;BME280;16708;50.426;7.664;2023-07-29T00:51:25;980.82;;;17.60;100.00
29815;BME280;16708;50.426;7.664;2023-07-29T00:56:20;980.80;;;17.59;100.00
29815;BME280;16708;50.426;7.664;2023-07-29T01:06:00;980.69;;;17.49;100.00
29815;BME280;16708;50.426;7.664;2023-07-29T01:10:54;980.75;;;17.43;100.00
29815;BME280;16708;50.426;7.664;2023-07-29T01:15:46;980.65;;;17.56;100.00
29815;BME280;16708;50.426;7.664;2023-07-29T01:20:40;980.55;;;17.76;100.00
29815;BME280;16708;50.426;7.664;2023-07-29T01:25:35;980.52;;;17.84;100.00
29815;BME280;16708;50.426;7.664;2023-07-29T01:35:23;980.55;;;17.92;100.00
29815;BME280;16708;50.426;7.664;2023-07-29T01:40:18;980.49;;;18.02;100.00
29815;BME280;16708;50.426;7.664;2023-07-29T01:45:12;980.50;;;18.07;100.00
29815;BME280;16708;50.426;7.664;2023-07-29T01:50:06;980.41;;;18.16;100.00
29815;BME280;16708;50.426;7.664;2023-07-29T01:54:59;980.31;;;18.20;100.00
29815;BME280;16708;50.426;7.664;2023-07-29T01:59:54;980.28;;;18.25;100.00
29815;BME280;16708;50.426;7.664;2023-07-29T02:04:47;980.21;;;18.25;100.00
29815;BME280;16708;50.426;7.664;2023-07-29T02:09:41;980.23;;;18.18;100.00
29815;BME280;16708;50.426;7.664;2023-07-29T02:14:36;980.13;;;18.27;100.00
29815;BME280;16708;50.426;7.664;2023-07-29T02:19:30;980.17;;;18.24;100.00
29815;BME280;16708;50.426;7.664;2023-07-29T02:24:25;980.13;;;18.22;100.00
29815;BME280;16708;50.426;7.664;2023-07-29T02:29:20;980.02;;;18.17;100.00
29815;BME280;16708;50.426;7.664;2023-07-29T02:34:13;979.88;;;18.08;100.00
29815;BME280;16708;50.426;7.664;2023-07-29T02:39:07;979.80;;;18.03;100.00
29815;BME280;16708;50.426;7.664;2023-07-29T02:44:01;979.80;;;17.97;100.00
29815;BME280;16708;50.426;7.664;2023-07-29T02:48:55;979.85;;;17.95;100.00
29815;BME280;16708;50.426;7.664;2023-07-29T02:53:50;979.82;;;17.92;100.00
29815;BME280;16708;50.426;7.664;2023-07-29T02:58:44;979.89;;;17.94;100.00
29815;BME280;16708;50.426;7.664;2023-07-29T03:03:39;979.88;;;17.89;100.00
29815;BME280;16708;50.426;7.664;2023-07-29T03:08:33;979.96;;;17.92;100.00
29815;BME280;16708;50.426;7.664;2023-07-29T03:13:28;979.80;;;17.90;100.00
29815;BME280;16708;50.426;7.664;2023-07-29T03:18:22;979.83;;;17.90;100.00
29815;BME280;16708;50.426;7.664;2023-07-29T03:23:16;979.80;;;17.89;100.00
29815;BME280;16708;50.426;7.664;2023-07-29T03:28:11;979.82;;;17.80;100.00
29815;BME280;16708;50.426;7.664;2023-07-29T03:33:05;979.82;;;17.74;100.00
29815;BME280;16708;50.426;7.664;2023-07-29T03:37:59;979.92;;;17.65;100.00
29815;BME280;16708;50.426;7.664;2023-07-29T03:42:54;979.80;;;17.56;100.00
29815;BME280;16708;50.426;7.664;2023-07-29T03:47:48;979.94;;;17.52;100.00
29815;BME280;16708;50.426;7.664;2023-07-29T03:52:40;979.95;;;17.57;100.00
29815;BME280;16708;50.426;7.664;2023-07-29T03:57:34;979.89;;;17.58;100.00
29815;BME280;16708;50.426;7.664;2023-07-29T04:02:26;979.85;;;17.56;100.00
29815;BME280;16708;50.426;7.664;2023-07-29T04:07:21;979.78;;;17.48;100.00
29815;BME280;16708;50.426;7.664;2023-07-29T04:12:15;979.89;;;17.45;100.00
29815;BME280;16708;50.426;7.664;2023-07-29T04:17:09;979.81;;;17.39;100.00
29815;BME280;16708;50.426;7.664;2023-07-29T04:22:03;979.90;;;17.37;100.00
29815;BME280;16708;50.426;7.664;2023-07-29T04:26:58;979.98;;;17.40;100.00
29815;BME280;16708;50.426;7.664;2023-07-29T04:31:52;980.03;;;17.38;100.00
29815;BME280;16708;50.426;7.664;2023-07-29T04:36:46;980.13;;;17.41;100.00
29815;BME280;16708;50.426;7.664;2023-07-29T04:41:41;980.11;;;17.48;100.00
29815;BME280;16708;50.426;7.664;2023-07-29T04:46:35;980.06;;;17.53;100.00
29815;BME280;16708;50.426;7.664;2023-07-29T04:51:29;980.07;;;17.61;100.00
29815;BME280;16708;50.426;7.664;2023-07-29T04:56:23;979.88;;;17.77;100.00
29815;BME280;16708;50.426;7.664;2023-07-29T05:01:18;980.09;;;17.96;100.00
29815;BME280;16708;50.426;7.664;2023-07-29T05:06:12;979.81;;;18.07;100.00
29815;BME280;16708;50.426;7.664;2023-07-29T05:11:07;979.83;;;18.07;100.00
29815;BME280;16708;50.426;7.664;2023-07-29T05:16:02;979.98;;;18.17;100.00
29815;BME280;16708;50.426;7.664;2023-07-29T05:20:56;980.00;;;18.21;100.00
29815;BME280;16708;50.426;7.664;2023-07-29T05:25:50;980.11;;;18.17;100.00
29815;BME280;16708;50.426;7.664;2023-07-29T05:30:43;980.14;;;18.09;100.00
29815;BME280;16708;50.426;7.664;2023-07-29T05:35:37;980.19;;;18.06;100.00
29815;BME280;16708;50.426;7.664;2023-07-29T05:40:31;980.28;;;17.98;100.00
29815;BME280;16708;50.426;7.664;2023-07-29T05:45:23;980.30;;;17.93;100.00
29815;BME280;16708;50.426;7.664;2023-07-29T05:50:18;980.11;;;17.88;100.00
29815;BME280;16708;50.426;7.664;2023-07-29T05:55:12;979.95;;;17.95;100.00
29815;BME280;16708;50.426;7.664;2023-07-29T06:00:06;980.21;;;18.04;100.00
29815;BME280;16708;50.426;7.664;2023-07-29T06:05:00;980.44;;;18.12;100.00
29815;BME280;16708;50.426;7.664;2023-07-29T06:09:55;980.30;;;18.26;100.00
29815;BME280;16708;50.426;7.664;2023-07-29T06:14:49;980.24;;;18.22;100.00
29815;BME280;16708;50.426;7.664;2023-07-29T06:19:43;980.06;;;18.21;100.00
29815;BME280;16708;50.426;7.664;2023-07-29T06:24:38;980.13;;;18.22;100.00
29815;BME280;16708;50.426;7.664;2023-07-29T06:29:32;980.28;;;18.25;100.00
29815;BME280;16708;50.426;7.664;2023-07-29T06:34:26;980.24;;;18.27;100.00
29815;BME280;16708;50.426;7.664;2023-07-29T06:39:21;980.40;;;18.53;100.00
29815;BME280;16708;50.426;7.664;2023-07-29T06:44:15;980.46;;;18.65;100.00
29815;BME280;16708;50.426;7.664;2023-07-29T06:49:09;980.44;;;18.77;100.00
29815;BME280;16708;50.426;7.664;2023-07-29T06:54:04;980.42;;;18.51;100.00
29815;BME280;16708;50.426;7.664;2023-07-29T06:58:59;980.49;;;18.57;100.00
29815;BME280;16708;50.426;7.664;2023-07-29T07:03:53;980.55;;;18.58;100.00
29815;BME280;16708;50.426;7.664;2023-07-29T07:08:47;980.52;;;18.80;100.00
29815;BME280;16708;50.426;7.664;2023-07-29T07:13:42;980.39;;;18.93;100.00
29815;BME280;16708;50.426;7.664;2023-07-29T07:18:37;980.46;;;19.30;100.00
29815;BME280;16708;50.426;7.664;2023-07-29T07:23:31;980.40;;;19.99;100.00
29815;BME280;16708;50.426;7.664;2023-07-29T07:28:26;980.53;;;19.57;100.00
29815;BME280;16708;50.426;7.664;2023-07-29T07:33:20;980.56;;;19.57;100.00
29815;BME280;16708;50.426;7.664;2023-07-29T07:38:15;980.46;;;19.59;100.00
29815;BME280;16708;50.426;7.664;2023-07-29T07:43:08;980.46;;;19.82;100.00
29815;BME280;16708;50.426;7.664;2023-07-29T07:48:03;980.44;;;20.21;100.00
29815;BME280;16708;50.426;7.664;2023-07-29T07:52:58;980.50;;;20.43;100.00
29815;BME280;16708;50.426;7.664;2023-07-29T07:57:52;980.46;;;20.77;100.00
29815;BME280;16708;50.426;7.664;2023-07-29T08:02:46;980.45;;;20.44;100.00
29815;BME280;16708;50.426;7.664;2023-07-29T08:07:40;980.44;;;21.44;100.00
29815;BME280;16708;50.426;7.664;2023-07-29T08:12:35;980.49;;;21.65;100.00
29815;BME280;16708;50.426;7.664;2023-07-29T08:17:29;980.51;;;21.16;100.00
29815;BME280;16708;50.426;7.664;2023-07-29T08:22:24;980.49;;;21.34;100.00
29815;BME280;16708;50.426;7.664;2023-07-29T08:27:16;980.53;;;21.43;100.00
29815;BME280;16708;50.426;7.664;2023-07-29T08:32:10;980.46;;;21.40;100.00
29815;BME280;16708;50.426;7.664;2023-07-29T08:37:05;980.61;;;20.97;100.00
29815;BME280;16708;50.426;7.664;2023-07-29T08:42:00;980.51;;;21.17;100.00
29815;BME280;16708;50.426;7.664;2023-07-29T08:46:54;980.57;;;21.57;100.00
29815;BME280;16708;50.426;7.664;2023-07-29T08:51:49;980.56;;;21.94;100.00
29815;BME280;16708;50.426;7.664;2023-07-29T08:56:44;980.62;;;22.06;100.00
29815;BME280;16708;50.426;7.664;2023-07-29T09:01:38;980.64;;;21.50;100.00
29815;BME280;16708;50.426;7.664;2023-07-29T09:06:32;980.70;;;20.90;100.00
29815;BME280;16708;50.426;7.664;2023-07-29T09:11:26;980.57;;;20.47;100.00
29815;BME280;16708;50.426;7.664;2023-07-29T09:16:20;980.68;;;20.18;100.00
29815;BME280;16708;50.426;7.664;2023-07-29T09:21:13;980.75;;;19.85;100.00
29815;BME280;16708;50.426;7.664;2023-07-29T09:26:07;980.92;;;18.90;100.00
29815;BME280;16708;50.426;7.664;2023-07-29T09:31:01;980.99;;;17.87;100.00
29815;BME280;16708;50.426;7.664;2023-07-29T09:35:55;981.20;;;17.68;100.00
29815;BME280;16708;50.426;7.664;2023-07-29T09:40:48;981.26;;;17.79;100.00
29815;BME280;16708;50.426;7.664;2023-07-29T09:45:42;981.19;;;18.22;100.00
29815;BME280;16708;50.426;7.664;2023-07-29T09:50:37;981.26;;;18.85;100.00
29815;BME280;16708;50.426;7.664;2023-07-29T09:55:31;981.26;;;18.78;100.00
29815;BME280;16708;50.426;7.664;2023-07-29T10:00:26;981.30;;;19.13;100.00
29815;BME280;16708;50.426;7.664;2023-07-29T10:05:21;981.41;;;19.36;100.00
29815;BME280;16708;50.426;7.664;2023-07-29T10:10:15;981.39;;;19.15;100.00
29815;BME280;16708;50.426;7.664;2023-07-29T10:15:09;981.40;;;19.45;100.00
29815;BME280;16708;50.426;7.664;2023-07-29T10:20:03;981.42;;;19.42;100.00
29815;BME280;16708;50.426;7.664;2023-07-29T10:24:58;981.34;;;20.16;100.00
29815;BME280;16708;50.426;7.664;2023-07-29T10:29:53;981.23;;;20.73;100.00
29815;BME280;16708;50.426;7.664;2023-07-29T10:34:47;981.18;;;20.83;100.00
29815;BME280;16708;50.426;7.664;2023-07-29T10:39:42;981.10;;;20.88;100.00
29815;BME280;16708;50.426;7.664;2023-07-29T10:54:26;981.08;;;24.80;100.00
29815;BME280;16708;50.426;7.664;2023-07-29T10:59:22;980.97;;;25.00;100.00
29815;BME280;16708;50.426;7.664;2023-07-29T11:04:16;980.95;;;23.44;100.00
29815;BME280;16708;50.426;7.664;2023-07-29T11:09:10;980.97;;;25.68;100.00
29815;BME280;16708;50.426;7.664;2023-07-29T11:14:06;980.96;;;25.56;100.00
29815;BME280;16708;50.426;7.664;2023-07-29T11:19:00;980.99;;;26.02;100.00
29815;BME280;16708;50.426;7.664;2023-07-29T11:23:55;981.00;;;27.35;100.00
29815;BME280;16708;50.426;7.664;2023-07-29T11:28:51;980.89;;;23.65;100.00
29815;BME280;16708;50.426;7.664;2023-07-29T11:33:43;980.87;;;22.49;100.00
29815;BME280;16708;50.426;7.664;2023-07-29T11:38:36;980.77;;;21.51;100.00
29815;BME280;16708;50.426;7.664;2023-07-29T11:43:29;980.67;;;22.32;100.00
29815;BME280;16708;50.426;7.664;2023-07-29T11:48:23;980.72;;;22.84;100.00
29815;BME280;16708;50.426;7.664;2023-07-29T11:53:17;980.83;;;25.85;100.00
29815;BME280;16708;50.426;7.664;2023-07-29T11:58:13;980.85;;;28.28;77.03
29815;BME280;16708;50.426;7.664;2023-07-29T12:03:10;980.82;;;29.17;84.49
29815;BME280;16708;50.426;7.664;2023-07-29T12:08:04;980.74;;;28.42;98.20
29815;BME280;16708;50.426;7.664;2023-07-29T12:12:58;980.73;;;25.32;100.00
29815;BME280;16708;50.426;7.664;2023-07-29T12:17:51;980.65;;;24.69;100.00
29815;BME280;16708;50.426;7.664;2023-07-29T12:22:44;980.62;;;23.45;100.00
29815;BME280;16708;50.426;7.664;2023-07-29T12:27:38;980.58;;;23.72;100.00
29815;BME280;16708;50.426;7.664;2023-07-29T12:32:32;980.40;;;23.25;100.00
29815;BME280;16708;50.426;7.664;2023-07-29T12:37:25;980.51;;;22.56;100.00
29815;BME280;16708;50.426;7.664;2023-07-29T12:42:19;980.49;;;21.83;100.00
29815;BME280;16708;50.426;7.664;2023-07-29T12:47:13;980.35;;;21.47;100.00
29815;BME280;16708;50.426;7.664;2023-07-29T12:52:06;980.46;;;21.52;100.00
29815;BME280;16708;50.426;7.664;2023-07-29T12:57:00;980.60;;;22.13;100.00
29815;BME280;16708;50.426;7.664;2023-07-29T13:01:54;980.57;;;22.88;100.00
29815;BME280;16708;50.426;7.664;2023-07-29T13:06:49;980.57;;;24.28;100.00
29815;BME280;16708;50.426;7.664;2023-07-29T13:11:45;980.54;;;26.29;100.00
29815;BME280;16708;50.426;7.664;2023-07-29T13:16:40;980.58;;;23.26;100.00
29815;BME280;16708;50.426;7.664;2023-07-29T13:21:32;980.54;;;23.37;100.00
29815;BME280;16708;50.426;7.664;2023-07-29T13:26:26;980.56;;;24.01;100.00
29815;BME280;16708;50.426;7.664;2023-07-29T13:31:20;980.62;;;24.11;100.00
29815;BME280;16708;50.426;7.664;2023-07-29T13:36:15;980.61;;;23.68;100.00
29815;BME280;16708;50.426;7.664;2023-07-29T13:41:07;980.55;;;22.60;100.00
29815;BME280;16708;50.426;7.664;2023-07-29T13:46:01;980.61;;;21.99;100.00
29815;BME280;16708;50.426;7.664;2023-07-29T13:50:55;980.67;;;22.19;100.00
29815;BME280;16708;50.426;7.664;2023-07-29T13:55:48;980.55;;;22.46;100.00
29815;BME280;16708;50.426;7.664;2023-07-29T14:00:43;980.49;;;22.78;100.00
29815;BME280;16708;50.426;7.664;2023-07-29T14:05:37;980.45;;;22.05;100.00
29815;BME280;16708;50.426;7.664;2023-07-29T14:10:31;980.45;;;22.00;100.00
29815;BME280;16708;50.426;7.664;2023-07-29T14:15:25;980.39;;;21.75;100.00
29815;BME280;16708;50.426;7.664;2023-07-29T14:20:18;980.33;;;21.36;100.00
29815;BME280;16708;50.426;7.664;2023-07-29T14:25:13;980.33;;;25.60;100.00
29815;BME280;16708;50.426;7.664;2023-07-29T14:30:08;980.31;;;24.79;100.00
29815;BME280;16708;50.426;7.664;2023-07-29T14:35:04;980.32;;;27.35;100.00
29815;BME280;16708;50.426;7.664;2023-07-29T14:40:01;980.32;;;27.84;100.00
29815;BME280;16708;50.426;7.664;2023-07-29T14:44:56;980.16;;;28.18;100.00
29815;BME280;16708;50.426;7.664;2023-07-29T14:49:51;980.23;;;27.11;100.00
29815;BME280;16708;50.426;7.664;2023-07-29T14:54:45;980.20;;;28.59;100.00
29815;BME280;16708;50.426;7.664;2023-07-29T14:59:40;980.29;;;28.01;100.00
29815;BME280;16708;50.426;7.664;2023-07-29T15:04:34;980.31;;;26.26;100.00
29815;BME280;16708;50.426;7.664;2023-07-29T15:09:28;980.32;;;25.34;100.00
29815;BME280;16708;50.426;7.664;2023-07-29T15:14:21;980.51;;;27.10;100.00
29815;BME280;16708;50.426;7.664;2023-07-29T15:19:15;980.40;;;24.60;100.00
29815;BME280;16708;50.426;7.664;2023-07-29T15:24:08;980.43;;;23.24;100.00
29815;BME280;16708;50.426;7.664;2023-07-29T15:29:02;980.50;;;22.72;100.00
29815;BME280;16708;50.426;7.664;2023-07-29T15:33:56;980.33;;;21.76;100.00
29815;BME280;16708;50.426;7.664;2023-07-29T15:38:49;980.48;;;22.89;100.00
29815;BME280;16708;50.426;7.664;2023-07-29T15:43:44;980.48;;;24.44;100.00
29815;BME280;16708;50.426;7.664;2023-07-29T15:48:39;980.47;;;22.54;100.00
29815;BME280;16708;50.426;7.664;2023-07-29T15:53:32;980.46;;;22.10;100.00
29815;BME280;16708;50.426;7.664;2023-07-29T15:58:24;980.41;;;21.98;100.00
29815;BME280;16708;50.426;7.664;2023-07-29T16:03:18;980.43;;;22.52;100.00
29815;BME280;16708;50.426;7.664;2023-07-29T16:08:13;980.56;;;25.49;100.00
29815;BME280;16708;50.426;7.664;2023-07-29T16:13:09;980.53;;;23.02;100.00
29815;BME280;16708;50.426;7.664;2023-07-29T16:18:03;980.52;;;24.71;100.00
29815;BME280;16708;50.426;7.664;2023-07-29T16:22:57;980.58;;;23.76;100.00
29815;BME280;16708;50.426;7.664;2023-07-29T16:27:51;980.52;;;26.05;100.00
29815;BME280;16708;50.426;7.664;2023-07-29T16:32:46;980.62;;;23.83;100.00
29815;BME280;16708;50.426;7.664;2023-07-29T16:37:39;980.56;;;22.59;100.00
29815;BME280;16708;50.426;7.664;2023-07-29T16:42:33;980.52;;;21.95;100.00
29815;BME280;16708;50.426;7.664;2023-07-29T16:47:27;980.42;;;21.87;100.00
29815;BME280;16708;50.426;7.664;2023-07-29T16:52:21;980.45;;;21.72;100.00
29815;BME280;16708;50.426;7.664;2023-07-29T16:57:15;980.53;;;22.15;100.00
29815;BME280;16708;50.426;7.664;2023-07-29T17:02:07;980.49;;;22.34;100.00
29815;BME280;16708;50.426;7.664;2023-07-29T17:07:02;980.49;;;22.09;100.00
29815;BME280;16708;50.426;7.664;2023-07-29T17:11:56;980.47;;;21.75;100.00
29815;BME280;16708;50.426;7.664;2023-07-29T17:16:51;980.50;;;21.54;100.00
29815;BME280;16708;50.426;7.664;2023-07-29T17:21:45;980.94;;;22.27;100.00
29815;BME280;16708;50.426;7.664;2023-07-29T17:26:39;980.91;;;22.68;100.00
29815;BME280;16708;50.426;7.664;2023-07-29T17:31:34;980.86;;;21.63;100.00
29815;BME280;16708;50.426;7.664;2023-07-29T17:36:28;980.72;;;21.71;100.00
29815;BME280;16708;50.426;7.664;2023-07-29T17:41:21;980.85;;;21.66;100.00
29815;BME280;16708;50.426;7.664;2023-07-29T17:46:15;980.95;;;25.98;100.00
29815;BME280;16708;50.426;7.664;2023-07-29T17:51:10;980.87;;;27.20;100.00
29815;BME280;16708;50.426;7.664;2023-07-29T17:56:05;980.96;;;27.16;100.00
29815;BME280;16708;50.426;7.664;2023-07-29T18:01:00;980.94;;;25.64;100.00
29815;BME280;16708;50.426;7.664;2023-07-29T18:05:55;980.91;;;26.65;100.00
29815;BME280;16708;50.426;7.664;2023-07-29T18:10:49;980.92;;;27.14;99.20
29815;BME280;16708;50.426;7.664;2023-07-29T18:15:43;980.91;;;25.73;100.00
29815;BME280;16708;50.426;7.664;2023-07-29T18:20:38;980.98;;;24.17;100.00
29815;BME280;16708;50.426;7.664;2023-07-29T18:25:31;980.87;;;23.94;100.00
29815;BME280;16708;50.426;7.664;2023-07-29T18:30:25;980.85;;;22.20;100.00
29815;BME280;16708;50.426;7.664;2023-07-29T18:35:19;980.83;;;21.42;100.00
29815;BME280;16708;50.426;7.664;2023-07-29T18:40:13;980.95;;;21.06;100.00
29815;BME280;16708;50.426;7.664;2023-07-29T18:45:07;980.99;;;20.67;100.00
29815;BME280;16708;50.426;7.664;2023-07-29T18:50:02;981.07;;;20.01;100.00
29815;BME280;16708;50.426;7.664;2023-07-29T18:54:55;981.10;;;19.58;100.00
29815;BME280;16708;50.426;7.664;2023-07-29T18:59:50;981.11;;;19.41;100.00
29815;BME280;16708;50.426;7.664;2023-07-29T19:04:44;981.17;;;19.47;100.00
29815;BME280;16708;50.426;7.664;2023-07-29T19:09:38;981.22;;;19.34;100.00
29815;BME280;16708;50.426;7.664;2023-07-29T19:14:33;981.17;;;19.28;100.00
29815;BME280;16708;50.426;7.664;2023-07-29T19:19:24;981.20;;;19.15;100.00
29815;BME280;16708;50.426;7.664;2023-07-29T19:24:18;981.27;;;19.08;100.00
29815;BME280;16708;50.426;7.664;2023-07-29T19:29:12;981.28;;;18.88;100.00
29815;BME280;16708;50.426;7.664;2023-07-29T19:34:07;981.42;;;18.62;100.00
29815;BME280;16708;50.426;7.664;2023-07-29T19:39:01;981.44;;;18.58;100.00
29815;BME280;16708;50.426;7.664;2023-07-29T19:43:55;981.41;;;18.55;100.00
29815;BME280;16708;50.426;7.664;2023-07-29T19:48:48;981.49;;;18.42;100.00
29815;BME280;16708;50.426;7.664;2023-07-29T19:53:42;981.50;;;18.30;100.00
29815;BME280;16708;50.426;7.664;2023-07-29T19:58:35;981.49;;;18.32;100.00
29815;BME280;16708;50.426;7.664;2023-07-29T20:03:29;981.47;;;18.41;100.00
29815;BME280;16708;50.426;7.664;2023-07-29T20:08:23;981.53;;;18.34;100.00
29815;BME280;16708;50.426;7.664;2023-07-29T20:13:17;981.48;;;18.37;100.00
29815;BME280;16708;50.426;7.664;2023-07-29T20:18:11;981.39;;;18.46;100.00
29815;BME280;16708;50.426;7.664;2023-07-29T20:23:04;981.47;;;18.41;100.00
29815;BME280;16708;50.426;7.664;2023-07-29T20:27:59;981.37;;;18.23;100.00
29815;BME280;16708;50.426;7.664;2023-07-29T20:32:53;981.37;;;18.12;100.00
29815;BME280;16708;50.426;7.664;2023-07-29T20:37:48;981.39;;;18.00;100.00
29815;BME280;16708;50.426;7.664;2023-07-29T20:42:42;981.35;;;17.96;100.00
29815;BME280;16708;50.426;7.664;2023-07-29T20:47:36;981.32;;;17.94;100.00
29815;BME280;16708;50.426;7.664;2023-07-29T20:52:30;981.47;;;17.84;100.00
29815;BME280;16708;50.426;7.664;2023-07-29T20:57:25;981.40;;;17.83;100.00
29815;BME280;16708;50.426;7.664;2023-07-29T21:02:19;981.46;;;17.72;100.00
29815;BME280;16708;50.426;7.664;2023-07-29T21:07:14;981.41;;;17.68;100.00
29815;BME280;16708;50.426;7.664;2023-07-29T21:12:08;981.52;;;17.64;100.00
29815;BME280;16708;50.426;7.664;2023-07-29T21:17:01;981.51;;;17.51;100.00
29815;BME280;16708;50.426;7.664;2023-07-29T21:21:56;981.58;;;17.36;100.00
29815;BME280;16708;50.426;7.664;2023-07-29T21:26:50;981.63;;;17.14;100.00
29815;BME280;16708;50.426;7.664;2023-07-29T21:31:44;981.75;;;17.03;100.00
29815;BME280;16708;50.426;7.664;2023-07-29T21:36:37;981.64;;;17.10;100.00
29815;BME280;16708;50.426;7.664;2023-07-29T21:41:31;981.69;;;17.04;100.00
29815;BME280;16708;50.426;7.664;2023-07-29T21:46:26;981.76;;;16.98;100.00
29815;BME280;16708;50.426;7.664;2023-07-29T21:51:20;981.79;;;17.04;100.00
29815;BME280;16708;50.426;7.664;2023-07-29T21:56:14;981.82;;;16.84;100.00
29815;BME280;16708;50.426;7.664;2023-07-29T22:01:09;981.84;;;16.77;100.00
29815;BME280;16708;50.426;7.664;2023-07-29T22:06:03;981.87;;;16.77;100.00
29815;BME280;16708;50.426;7.664;2023-07-29T22:10:58;981.94;;;16.59;100.00
29815;BME280;16708;50.426;7.664;2023-07-29T22:15:53;982.02;;;16.53;100.00
29815;BME280;16708;50.426;7.664;2023-07-29T22:20:47;982.14;;;16.38;100.00
29815;BME280;16708;50.426;7.664;2023-07-29T22:25:41;982.14;;;16.17;100.00
29815;BME280;16708;50.426;7.664;2023-07-29T22:30:35;982.19;;;16.42;100.00
29815;BME280;16708;50.426;7.664;2023-07-29T22:35:30;982.22;;;16.70;100.00
29815;BME280;16708;50.426;7.664;2023-07-29T22:40:24;982.27;;;16.84;100.00
29815;BME280;16708;50.426;7.664;2023-07-29T22:45:17;982.26;;;16.98;100.00
29815;BME280;16708;50.426;7.664;2023-07-29T22:50:12;982.13;;;16.95;100.00
29815;BME280;16708;50.426;7.664;2023-07-29T22:55:06;982.22;;;16.88;100.00
29815;BME280;16708;50.426;7.664;2023-07-29T23:00:01;982.36;;;16.75;100.00
29815;BME280;16708;50.426;7.664;2023-07-29T23:04:55;982.35;;;16.65;100.00
29815;BME280;16708;50.426;7.664;2023-07-29T23:09:50;982.31;;;16.55;100.00
29815;BME280;16708;50.426;7.664;2023-07-29T23:14:44;982.27;;;16.29;100.00
29815;BME280;16708;50.426;7.664;2023-07-29T23:19:39;982.29;;;16.11;100.00
29815;BME280;16708;50.426;7.664;2023-07-29T23:24:33;982.22;;;15.89;100.00
29815;BME280;16708;50.426;7.664;2023-07-29T23:29:27;982.21;;;15.71;100.00
29815;BME280;16708;50.426;7.664;2023-07-29T23:34:20;982.30;;;15.64;100.00
29815;BME280;16708;50.426;7.664;2023-07-29T23:39:15;982.33;;;15.54;100.00
29815;BME280;16708;50.426;7.664;2023-07-29T23:44:09;982.28;;;15.41;100.00
29815;BME280;16708;50.426;7.664;2023-07-29T23:49:03;982.31;;;15.32;100.00
29815;BME280;16708;50.426;7.664;2023-07-29T23:53:58;982.25;;;15.16;100.00
29815;BME280;16708;50.426;7.664;2023-07-29T23:58:53;982.35;;;15.05;100.00
